Time;durP1;ratioP1;P1;durP2;ratioP2;P2;SDS_P1;SDS_P2;PMS_P1;PMS_P2;Temp;Humidity;BMP_temperature;BMP_pressure;BME280_temperature;BME280_humidity;BME280_pressure;Samples;Min_cycle;Max_cycle;Signal;HPM_P1;HPM_P2
2024/01/14 00:01:18;;;;;;;;;;;;;;;15.92;39.06;99515.09;10324600;28;933;-79
2024/01/14 00:06:14;;;;;;;;;;;;;;;15.90;39.41;99512.56;10324426;28;1902;-79
2024/01/14 00:11:10;;;;;;;;;;;;;;;15.90;39.04;99498.53;10324603;28;946;-80
2024/01/14 00:16:06;;;;;;;;;;;;;;;15.90;39.10;99502.03;10331062;28;877;-79
2024/01/14 00:21:03;;;;;;;;;;;;;;;15.89;39.05;99500.31;10331775;28;898;-79
2024/01/14 00:25:58;;;;;;;;;;;;;;;15.86;39.26;99474.16;10332193;28;1918;-79
2024/01/14 00:30:54;;;;;;;;;;;;;;;15.88;39.33;99477.59;10331485;28;919;-79
2024/01/14 00:35:50;;;;;;;;;;;;;;;15.88;38.97;99469.69;10331922;28;961;-79
2024/01/14 00:40:46;;;;;;;;;;;;;;;15.86;39.19;99468.91;10331682;28;790;-79
2024/01/14 00:45:42;;;;;;;;;;;;;;;15.85;39.20;99456.69;10330905;28;1955;-79
2024/01/14 00:50:38;;;;;;;;;;;;;;;15.84;39.16;99452.31;10331396;28;798;-79
2024/01/14 00:55:34;;;;;;;;;;;;;;;15.85;39.38;99443.53;10330678;28;1071;-79
2024/01/14 01:00:30;;;;;;;;;;;;;;;15.85;39.29;99440.03;10330342;28;919;-79
2024/01/14 01:05:26;;;;;;;;;;;;;;;15.83;39.34;99442.75;10330843;28;1906;-79
2024/01/14 01:10:22;;;;;;;;;;;;;;;15.82;39.07;99433.13;10329865;28;866;-79
2024/01/14 01:15:17;;;;;;;;;;;;;;;15.83;39.11;99432.22;10329860;28;775;-79
2024/01/14 01:20:13;;;;;;;;;;;;;;;15.81;39.21;99441.94;10329658;28;822;-79
2024/01/14 01:25:10;;;;;;;;;;;;;;;15.81;39.17;99441.09;10328971;28;1914;-79
2024/01/14 01:30:06;;;;;;;;;;;;;;;15.81;39.44;99435.84;10329315;28;943;-79
2024/01/14 01:35:02;;;;;;;;;;;;;;;15.83;39.23;99437.50;10328496;28;859;-79
2024/01/14 01:39:57;;;;;;;;;;;;;;;15.81;39.44;99427.94;10328779;28;849;-79
2024/01/14 01:44:53;;;;;;;;;;;;;;;15.80;39.30;99432.34;10328672;28;870;-79
2024/01/14 01:49:49;;;;;;;;;;;;;;;15.81;39.36;99417.44;10328993;28;1882;-80
2024/01/14 01:54:45;;;;;;;;;;;;;;;15.81;39.39;99425.31;10328885;28;795;-79
2024/01/14 01:59:41;;;;;;;;;;;;;;;15.82;39.41;99409.47;10328045;28;863;-79
2024/01/14 02:04:37;;;;;;;;;;;;;;;15.80;39.47;99405.19;10328470;28;909;-79
2024/01/14 02:09:33;;;;;;;;;;;;;;;15.79;39.45;99393.84;10327620;28;1886;-79
2024/01/14 02:14:29;;;;;;;;;;;;;;;15.80;39.42;99392.06;10327475;28;822;-79
2024/01/14 02:19:24;;;;;;;;;;;;;;;15.79;39.38;99383.31;10326655;28;916;-79
2024/01/14 02:24:20;;;;;;;;;;;;;;;15.81;39.39;99393.78;10327698;28;901;-79
2024/01/14 02:29:16;;;;;;;;;;;;;;;15.78;39.52;99393.00;10327306;28;1917;-79
2024/01/14 02:34:12;;;;;;;;;;;;;;;15.78;39.45;99384.25;10326711;28;770;-79
2024/01/14 02:39:09;;;;;;;;;;;;;;;15.78;39.61;99373.75;10326089;28;944;-79
2024/01/14 02:44:05;;;;;;;;;;;;;;;15.79;39.23;99364.94;10326239;28;870;-79
2024/01/14 02:49:01;;;;;;;;;;;;;;;15.77;39.65;99370.28;10326507;28;1898;-79
2024/01/14 02:53:57;;;;;;;;;;;;;;;15.77;39.54;99354.50;10326011;28;954;-79
2024/01/14 02:58:53;;;;;;;;;;;;;;;15.78;39.61;99350.94;10325959;28;770;-79
2024/01/14 03:03:49;;;;;;;;;;;;;;;15.77;39.59;99333.47;10325787;28;938;-79
2024/01/14 03:08:45;;;;;;;;;;;;;;;15.76;39.62;99330.91;10326500;28;1894;-79
2024/01/14 03:13:41;;;;;;;;;;;;;;;15.74;39.48;99333.59;10325543;28;870;-79
2024/01/14 03:18:36;;;;;;;;;;;;;;;15.72;39.57;99331.97;10326089;28;872;-79
2024/01/14 03:23:32;;;;;;;;;;;;;;;15.68;39.49;99323.31;10324763;28;1059;-79
2024/01/14 03:28:28;;;;;;;;;;;;;;;15.65;39.58;99322.59;10324453;28;1971;-79
2024/01/14 03:33:24;;;;;;;;;;;;;;;15.63;39.44;99322.63;10325348;28;1004;-79
2024/01/14 03:38:20;;;;;;;;;;;;;;;15.62;39.54;99322.72;10324447;28;1000;-79
2024/01/14 03:43:16;;;;;;;;;;;;;;;15.56;39.41;99311.53;10324930;28;920;-79
2024/01/14 03:48:12;;;;;;;;;;;;;;;15.54;39.32;99315.16;10327885;28;1955;-79
2024/01/14 03:53:08;;;;;;;;;;;;;;;15.53;39.50;99313.41;10333623;28;964;-79
2024/01/14 03:58:04;;;;;;;;;;;;;;;15.52;39.79;99301.22;10332815;28;875;-79
2024/01/14 04:02:59;;;;;;;;;;;;;;;15.53;39.23;99301.13;10333202;28;767;-79
2024/01/14 04:07:55;;;;;;;;;;;;;;;15.51;39.42;99300.38;10332372;28;1898;-79
2024/01/14 04:12:51;;;;;;;;;;;;;;;15.51;39.55;99305.63;10331926;28;897;-79
2024/01/14 04:17:47;;;;;;;;;;;;;;;15.50;39.50;99303.03;10332650;28;870;-79
2024/01/14 04:22:43;;;;;;;;;;;;;;;15.51;39.62;99299.50;10332467;28;818;-79
2024/01/14 04:27:39;;;;;;;;;;;;;;;15.53;39.40;99301.13;10331472;28;1909;-79
2024/01/14 04:32:35;;;;;;;;;;;;;;;15.55;39.64;99283.53;10330888;28;1044;-79
2024/01/14 04:37:31;;;;;;;;;;;;;;;15.57;39.58;99291.38;10330758;28;874;-79
2024/01/14 04:42:28;;;;;;;;;;;;;;;15.57;39.56;99279.09;10331627;28;881;-79
2024/01/14 04:47:23;;;;;;;;;;;;;;;15.61;39.54;99276.31;10330911;28;1955;-79
2024/01/14 04:52:19;;;;;;;;;;;;;;;15.63;39.52;99269.25;10331475;28;975;-79
2024/01/14 04:57:15;;;;;;;;;;;;;;;15.63;39.42;99279.75;10330599;28;1083;-79
2024/01/14 05:02:11;;;;;;;;;;;;;;;15.66;39.55;99266.47;10329972;28;871;-79
2024/01/14 05:07:07;;;;;;;;;;;;;;;15.66;39.50;99271.75;10330082;28;1952;-79
2024/01/14 05:12:03;;;;;;;;;;;;;;;15.67;39.57;99274.31;10331114;28;844;-79
2024/01/14 05:16:59;;;;;;;;;;;;;;;15.68;39.33;99260.25;10329830;28;764;-79
2024/01/14 05:21:56;;;;;;;;;;;;;;;15.69;39.30;99266.38;10329744;28;908;-79
2024/01/14 05:26:52;;;;;;;;;;;;;;;15.70;39.62;99247.94;10329622;28;1989;-79
2024/01/14 05:31:48;;;;;;;;;;;;;;;15.71;39.50;99239.13;10329271;28;830;-79
2024/01/14 05:36:44;;;;;;;;;;;;;;;15.71;39.27;99243.53;10329024;28;885;-79
2024/01/14 05:41:40;;;;;;;;;;;;;;;15.73;39.34;99231.19;10329544;28;852;-79
2024/01/14 05:46:35;;;;;;;;;;;;;;;15.73;39.43;99233.81;10327906;28;1959;-79
2024/01/14 05:51:31;;;;;;;;;;;;;;;15.72;39.28;99240.84;10328463;28;795;-79
2024/01/14 05:56:27;;;;;;;;;;;;;;;15.74;39.30;99235.50;10328249;28;810;-79
2024/01/14 06:01:23;;;;;;;;;;;;;;;15.75;39.27;99226.72;10328598;28;886;-79
2024/01/14 06:06:19;;;;;;;;;;;;;;;15.74;39.39;99230.25;10328282;28;1965;-79
2024/01/14 06:11:15;;;;;;;;;;;;;;;15.76;39.21;99231.91;10327404;28;857;-79
2024/01/14 06:16:11;;;;;;;;;;;;;;;15.75;39.34;99226.72;10327662;28;865;-78
2024/01/14 06:21:07;;;;;;;;;;;;;;;15.77;39.25;99227.50;10327859;28;873;-79
2024/01/14 06:26:02;;;;;;;;;;;;;;;15.77;39.19;99211.72;10327297;28;1918;-84
2024/01/14 06:30:58;;;;;;;;;;;;;;;15.76;39.22;99212.66;10326796;28;920;-80
2024/01/14 06:35:54;;;;;;;;;;;;;;;15.77;39.12;99202.09;10328018;28;854;-78
2024/01/14 06:40:50;;;;;;;;;;;;;;;15.78;39.03;99202.94;10327148;28;838;-78
2024/01/14 06:45:46;;;;;;;;;;;;;;;15.77;39.16;99195.97;10326415;28;1902;-77
2024/01/14 06:50:42;;;;;;;;;;;;;;;15.77;39.14;99194.22;10326950;28;864;-77
2024/01/14 06:55:38;;;;;;;;;;;;;;;15.78;38.96;99197.69;10326065;28;822;-78
2024/01/14 07:00:34;;;;;;;;;;;;;;;15.77;39.04;99185.44;10325971;28;904;-78
2024/01/14 07:05:30;;;;;;;;;;;;;;;15.77;39.16;99182.81;10326336;28;1971;-74
2024/01/14 07:10:26;;;;;;;;;;;;;;;15.76;39.08;99178.50;10326432;28;950;-77
2024/01/14 07:15:22;;;;;;;;;;;;;;;15.77;39.00;99167.06;10325807;28;921;-77
2024/01/14 07:20:18;;;;;;;;;;;;;;;15.78;38.92;99156.50;10324653;28;921;-78
2024/01/14 07:25:14;;;;;;;;;;;;;;;15.78;39.02;99161.75;10324907;28;1027;-76
2024/01/14 07:30:10;;;;;;;;;;;;;;;15.77;39.13;99153.91;10325188;28;1969;-78
2024/01/14 07:35:06;;;;;;;;;;;;;;;15.77;38.98;99160.06;10325226;28;830;-78
2024/01/14 07:40:02;;;;;;;;;;;;;;;15.78;39.11;99155.66;10325128;28;762;-78
2024/01/14 07:44:58;;;;;;;;;;;;;;;15.78;38.88;99161.75;10324956;28;934;-74
2024/01/14 07:49:54;;;;;;;;;;;;;;;15.79;38.90;99165.22;10325438;28;1955;-80
2024/01/14 07:54:50;;;;;;;;;;;;;;;15.78;39.11;99169.63;10325465;28;876;-78
2024/01/14 07:59:46;;;;;;;;;;;;;;;15.79;39.01;99170.47;10324756;28;766;-80
2024/01/14 08:04:41;;;;;;;;;;;;;;;15.79;38.95;99165.22;10325198;28;892;-78
2024/01/14 08:09:37;;;;;;;;;;;;;;;15.80;39.04;99164.31;10325013;28;1889;-78
2024/01/14 08:14:33;;;;;;;;;;;;;;;15.84;39.08;99159.78;10324491;28;888;-76
2024/01/14 08:19:29;;;;;;;;;;;;;;;15.95;39.23;99158.34;10324262;28;980;-72
2024/01/14 08:24:25;;;;;;;;;;;;;;;16.01;39.22;99154.63;10324449;28;842;-74
2024/01/14 08:29:21;;;;;;;;;;;;;;;16.03;39.46;99162.41;10324741;28;1992;-74
2024/01/14 08:34:17;;;;;;;;;;;;;;;16.04;39.90;99151.00;10325989;28;771;-74
2024/01/14 08:39:13;;;;;;;;;;;;;;;16.07;39.77;99145.59;10331305;28;822;-74
2024/01/14 08:44:10;;;;;;;;;;;;;;;16.09;39.83;99147.22;10331111;28;972;-74
2024/01/14 08:49:06;;;;;;;;;;;;;;;16.09;39.93;99147.22;10330835;28;1905;-75
2024/01/14 08:54:02;;;;;;;;;;;;;;;16.17;39.79;99154.78;10330780;28;910;-74
2024/01/14 08:58:58;;;;;;;;;;;;;;;16.15;39.86;99146.94;10331174;28;878;-78
2024/01/14 09:03:54;;;;;;;;;;;;;;;16.17;39.99;99149.50;10330509;28;909;-67
2024/01/14 09:08:50;;;;;;;;;;;;;;;16.21;39.42;99132.66;10330140;28;1902;-72
2024/01/14 09:13:46;;;;;;;;;;;;;;;16.13;39.70;99138.25;10330036;28;897;-73
2024/01/14 09:18:42;;;;;;;;;;;;;;;16.12;39.71;99139.19;10326997;28;1130;-72
2024/01/14 09:23:37;;;;;;;;;;;;;;;16.14;39.41;99129.47;10329737;28;939;-72
2024/01/14 09:28:33;;;;;;;;;;;;;;;16.12;39.49;99133.09;10328000;28;1902;-73
2024/01/14 09:33:29;;;;;;;;;;;;;;;16.14;39.13;99131.25;10329187;28;835;-74
2024/01/14 09:38:25;;;;;;;;;;;;;;;16.13;39.06;99137.41;10328353;28;1004;-72
2024/01/14 09:43:21;;;;;;;;;;;;;;;16.11;39.43;99139.25;10322435;28;1908;-71
2024/01/14 09:48:18;;;;;;;;;;;;;;;16.10;39.47;99141.03;10310601;28;1965;-73
2024/01/14 09:53:14;;;;;;;;;;;;;;;16.08;39.57;99140.25;10328852;28;932;-74
2024/01/14 09:58:12;;;;;;;;;;;;;;;16.20;39.51;99128.34;10328101;28;790;-74
2024/01/14 10:03:08;;;;;;;;;;;;;;;16.15;40.40;99132.94;10327699;28;895;-73
2024/01/14 10:08:03;;;;;;;;;;;;;;;16.13;41.03;99126.91;10327525;28;1964;-72
2024/01/14 10:12:59;;;;;;;;;;;;;;;16.15;41.52;99119.81;10327607;28;865;-73
2024/01/14 10:17:56;;;;;;;;;;;;;;;16.06;40.91;99115.84;10326720;28;794;-72
2024/01/14 10:22:52;;;;;;;;;;;;;;;16.11;41.07;99105.09;10326917;28;924;-77
2024/01/14 10:27:47;;;;;;;;;;;;;;;16.04;40.99;99101.06;10326986;28;1975;-69
2024/01/14 10:32:43;;;;;;;;;;;;;;;16.00;40.80;99100.31;10326472;28;810;-69
2024/01/14 10:37:39;;;;;;;;;;;;;;;16.00;40.62;99095.06;10326523;28;775;-70
2024/01/14 10:42:36;;;;;;;;;;;;;;;16.04;40.10;99077.41;10326238;28;853;-70
2024/01/14 10:47:32;;;;;;;;;;;;;;;15.98;40.05;99074.13;10325690;28;1897;-69
2024/01/14 10:52:28;;;;;;;;;;;;;;;15.96;39.97;99060.19;10326512;28;861;-66
2024/01/14 10:57:24;;;;;;;;;;;;;;;15.94;39.65;99062.03;10325452;28;790;-66
2024/01/14 11:02:21;;;;;;;;;;;;;;;15.89;39.69;99047.41;10325027;28;1173;-67
2024/01/14 11:07:17;;;;;;;;;;;;;;;15.87;39.69;99033.47;10325408;28;1961;-67
2024/01/14 11:12:13;;;;;;;;;;;;;;;15.86;39.63;99037.91;10325403;28;867;-67
2024/01/14 11:17:09;;;;;;;;;;;;;;;15.85;39.83;99024.81;10325450;28;1243;-69
2024/01/14 11:22:05;;;;;;;;;;;;;;;15.87;39.50;99018.56;10325402;28;897;-66
2024/01/14 11:27:02;;;;;;;;;;;;;;;15.95;39.52;99010.31;10325122;28;1918;-66
2024/01/14 11:31:59;;;;;;;;;;;;;;;15.93;39.58;98992.00;10324868;28;1016;-67
2024/01/14 11:36:55;;;;;;;;;;;;;;;15.99;39.64;98980.34;10324783;28;965;-67
2024/01/14 11:41:51;;;;;;;;;;;;;;;15.96;40.07;98973.47;10325158;28;1546;-66
2024/01/14 11:46:47;;;;;;;;;;;;;;;15.97;40.34;98972.53;10324710;28;1956;-66
2024/01/14 11:51:43;;;;;;;;;;;;;;;15.95;40.40;98963.00;10325359;28;848;-66
2024/01/14 11:56:39;;;;;;;;;;;;;;;15.96;40.26;98960.31;10324536;28;762;-66
2024/01/14 12:01:35;;;;;;;;;;;;;;;15.95;40.40;98945.47;10325444;28;775;-66
2024/01/14 12:06:31;;;;;;;;;;;;;;;15.94;40.57;98937.66;10324422;28;1893;-66
2024/01/14 12:11:27;;;;;;;;;;;;;;;15.97;40.60;98938.34;10330099;28;913;-66
2024/01/14 12:16:23;;;;;;;;;;;;;;;16.02;41.07;98930.25;10331403;28;1000;-66
2024/01/14 12:21:19;;;;;;;;;;;;;;;16.02;41.42;98929.41;10332223;28;870;-66
2024/01/14 12:26:15;;;;;;;;;;;;;;;16.07;41.17;98922.16;10331278;28;1906;-67
2024/01/14 12:31:11;;;;;;;;;;;;;;;16.08;41.27;98898.41;10331437;28;1024;-66
2024/01/14 12:36:06;;;;;;;;;;;;;;;16.07;41.11;98894.09;10331524;28;842;-66
2024/01/14 12:41:02;;;;;;;;;;;;;;;16.04;41.19;98881.09;10331849;28;917;-67
2024/01/14 12:45:58;;;;;;;;;;;;;;;16.10;40.78;98867.63;10330840;28;1898;-67
2024/01/14 12:50:55;;;;;;;;;;;;;;;16.06;40.99;98870.47;10331223;28;787;-66
2024/01/14 12:55:51;;;;;;;;;;;;;;;16.13;40.75;98856.13;10330958;28;866;-66
2024/01/14 13:00:47;;;;;;;;;;;;;;;16.20;40.67;98849.63;10330250;28;870;-66
2024/01/14 13:05:43;;;;;;;;;;;;;;;16.15;40.80;98843.75;10330383;28;1870;-67
2024/01/14 13:10:39;;;;;;;;;;;;;;;16.13;40.82;98832.47;10329828;28;843;-67
2024/01/14 13:15:35;;;;;;;;;;;;;;;16.10;40.89;98830.00;10330842;28;786;-66
2024/01/14 13:20:31;;;;;;;;;;;;;;;16.19;40.82;98829.50;10328313;28;1236;-66
2024/01/14 13:25:27;;;;;;;;;;;;;;;16.17;40.73;98820.88;10329795;28;1285;-65
2024/01/14 13:30:23;;;;;;;;;;;;;;;16.16;40.77;98819.16;10329340;28;1890;-66
2024/01/14 13:35:18;;;;;;;;;;;;;;;16.15;40.95;98812.19;10329110;28;850;-65
2024/01/14 13:40:15;;;;;;;;;;;;;;;16.23;40.67;98793.41;10329294;28;816;-65
2024/01/14 13:45:11;;;;;;;;;;;;;;;16.23;40.69;98782.88;10328016;28;990;-65
2024/01/14 13:50:07;;;;;;;;;;;;;;;16.22;40.71;98784.69;10328235;28;1944;-66
2024/01/14 13:55:03;;;;;;;;;;;;;;;16.29;40.25;98782.56;10329546;28;827;-66
2024/01/14 13:59:59;;;;;;;;;;;;;;;16.23;40.40;98770.59;10328697;28;862;-65
2024/01/14 14:04:55;;;;;;;;;;;;;;;16.23;40.39;98767.13;10327701;28;870;-66
2024/01/14 14:09:50;;;;;;;;;;;;;;;16.19;40.61;98762.03;10327512;28;1957;-65
2024/01/14 14:14:46;;;;;;;;;;;;;;;16.22;40.63;98761.00;10328298;28;898;-66
2024/01/14 14:19:42;;;;;;;;;;;;;;;16.20;40.49;98753.19;10327699;28;937;-66
2024/01/14 14:24:38;;;;;;;;;;;;;;;16.21;40.58;98739.09;10327004;28;830;-65
2024/01/14 14:29:34;;;;;;;;;;;;;;;16.25;40.38;98742.44;10327372;28;1980;-65
2024/01/14 14:34:30;;;;;;;;;;;;;;;16.18;40.66;98733.16;10325895;28;922;-65
2024/01/14 14:39:26;;;;;;;;;;;;;;;16.18;40.54;98738.41;10327117;28;910;-65
2024/01/14 14:44:22;;;;;;;;;;;;;;;16.24;40.25;98724.09;10326600;28;826;-65
2024/01/14 14:49:17;;;;;;;;;;;;;;;16.25;40.40;98720.56;10325472;28;1898;-66
2024/01/14 14:54:13;;;;;;;;;;;;;;;16.23;40.52;98723.25;10326542;28;901;-65
2024/01/14 14:59:09;;;;;;;;;;;;;;;16.21;40.48;98709.34;10325751;28;822;-72
2024/01/14 15:04:05;;;;;;;;;;;;;;;16.15;40.79;98697.38;10325592;28;867;-79
2024/01/14 15:09:01;;;;;;;;;;;;;;;16.18;40.57;98684.06;10325913;28;1961;-78
2024/01/14 15:13:57;;;;;;;;;;;;;;;16.14;40.59;98673.81;10325500;28;887;-78
2024/01/14 15:18:53;;;;;;;;;;;;;;;16.18;39.95;98681.44;10325009;28;1179;-78
2024/01/14 15:23:49;;;;;;;;;;;;;;;16.11;40.44;98672.19;10325938;28;996;-78
2024/01/14 15:28:45;;;;;;;;;;;;;;;16.07;40.55;98669.81;10325424;28;1906;-75
2024/01/14 15:33:40;;;;;;;;;;;;;;;16.05;40.94;98653.25;10324685;28;1345;-75
2024/01/14 15:38:36;;;;;;;;;;;;;;;16.02;40.71;98651.66;10324996;28;779;-75
2024/01/14 15:43:32;;;;;;;;;;;;;;;16.06;40.23;98640.03;10327666;28;890;-76
2024/01/14 15:48:28;;;;;;;;;;;;;;;15.97;40.47;98644.00;10333638;28;1965;-75
2024/01/14 15:53:24;;;;;;;;;;;;;;;15.96;40.29;98641.47;10333676;28;968;-76
2024/01/14 15:58:20;;;;;;;;;;;;;;;15.94;40.30;98625.78;10332905;28;802;-76
2024/01/14 16:03:16;;;;;;;;;;;;;;;15.97;39.78;98620.34;10332665;28;945;-76
2024/01/14 16:08:12;;;;;;;;;;;;;;;15.90;40.14;98610.25;10332107;28;1925;-75
2024/01/14 16:13:08;;;;;;;;;;;;;;;15.94;39.93;98596.84;10332148;28;977;-75
2024/01/14 16:18:04;;;;;;;;;;;;;;;15.89;39.98;98587.53;10332587;28;790;-77
2024/01/14 16:23:00;;;;;;;;;;;;;;;15.90;39.82;98586.59;10331935;28;962;-77
2024/01/14 16:27:55;;;;;;;;;;;;;;;15.89;39.83;98584.91;10330941;28;1914;-77
2024/01/14 16:32:51;;;;;;;;;;;;;;;15.88;39.61;98581.44;10331596;28;783;-77
2024/01/14 16:37:47;;;;;;;;;;;;;;;15.85;39.77;98578.09;10332669;28;834;-77
2024/01/14 16:42:43;;;;;;;;;;;;;;;15.84;39.71;98565.91;10331294;28;919;-77
2024/01/14 16:47:39;;;;;;;;;;;;;;;15.83;39.86;98556.34;10331624;28;1890;-77
2024/01/14 16:52:35;;;;;;;;;;;;;;;15.87;39.33;98540.31;10330931;28;921;-75
2024/01/14 16:57:31;;;;;;;;;;;;;;;15.81;39.77;98538.03;10330148;28;795;-76
2024/01/14 17:02:27;;;;;;;;;;;;;;;15.79;39.61;98534.63;10331141;28;806;-75
2024/01/14 17:07:23;;;;;;;;;;;;;;;15.80;39.65;98543.34;10330269;28;1957;-75
2024/01/14 17:12:19;;;;;;;;;;;;;;;15.80;39.55;98531.09;10330811;28;797;-74
2024/01/14 17:17:15;;;;;;;;;;;;;;;15.81;39.49;98519.63;10329995;28;1081;-74
2024/01/14 17:22:11;;;;;;;;;;;;;;;15.76;39.43;98529.53;10329871;28;866;-76
2024/01/14 17:27:07;;;;;;;;;;;;;;;15.77;39.40;98515.47;10329261;28;1989;-81
2024/01/14 17:32:03;;;;;;;;;;;;;;;15.76;39.56;98512.00;10329868;28;888;-81
2024/01/14 17:36:59;;;;;;;;;;;;;;;15.75;39.50;98509.47;10329898;28;852;-81
2024/01/14 17:41:55;;;;;;;;;;;;;;;15.73;39.69;98500.81;10329376;28;860;-81
2024/01/14 17:46:51;;;;;;;;;;;;;;;15.73;39.53;98495.56;10328214;28;1959;-77
2024/01/14 17:51:47;;;;;;;;;;;;;;;15.75;39.43;98493.69;10329231;28;874;-74
2024/01/14 17:56:43;;;;;;;;;;;;;;;15.70;39.58;98491.31;10328357;28;957;-78
2024/01/14 18:01:39;;;;;;;;;;;;;;;15.71;39.54;98486.91;10328855;28;765;-77
2024/01/14 18:06:35;;;;;;;;;;;;;;;15.72;39.41;98475.50;10327426;28;1971;-74
2024/01/14 18:11:30;;;;;;;;;;;;;;;15.80;40.14;98486.41;10327795;28;770;-73
2024/01/14 18:16:26;;;;;;;;;;;;;;;15.73;40.17;98482.44;10328239;28;775;-80
2024/01/14 18:21:23;;;;;;;;;;;;;;;15.75;40.18;98483.19;10327670;28;861;-75
2024/01/14 18:26:18;;;;;;;;;;;;;;;15.75;40.23;98460.38;10327496;28;1914;-72
2024/01/14 18:31:14;;;;;;;;;;;;;;;15.80;39.83;98464.53;10327514;28;874;-72
2024/01/14 18:36:10;;;;;;;;;;;;;;;15.73;40.19;98462.25;10327147;28;880;-77
2024/01/14 18:41:09;;;;;;;;;;;;;;;15.70;40.34;98464.22;10327042;28;834;-77
2024/01/14 18:46:05;;;;;;;;;;;;;;;15.69;40.33;98479.13;10326244;28;1898;-76
2024/01/14 18:51:01;;;;;;;;;;;;;;;15.69;40.27;98468.63;10326024;28;910;-76
2024/01/14 18:55:58;;;;;;;;;;;;;;;15.70;40.47;98474.72;10325939;28;887;-77
2024/01/14 19:00:54;;;;;;;;;;;;;;;15.70;40.54;98474.72;10325812;28;893;-77
2024/01/14 19:05:49;;;;;;;;;;;;;;;15.71;40.49;98465.88;10327065;28;1898;-77
2024/01/14 19:10:45;;;;;;;;;;;;;;;15.71;40.26;98455.38;10325647;28;815;-77
2024/01/14 19:15:41;;;;;;;;;;;;;;;15.70;40.21;98437.94;10325595;28;1018;-77
2024/01/14 19:20:37;;;;;;;;;;;;;;;15.71;40.22;98435.22;10324285;28;885;-77
2024/01/14 19:25:33;;;;;;;;;;;;;;;15.72;40.32;98446.59;10326202;28;1320;-76
2024/01/14 19:30:30;;;;;;;;;;;;;;;15.72;40.13;98438.72;10325155;28;1910;-79
2024/01/14 19:35:26;;;;;;;;;;;;;;;15.73;40.20;98437.75;10325061;28;933;-79
2024/01/14 19:40:22;;;;;;;;;;;;;;;15.72;40.04;98415.06;10324875;28;814;-78
2024/01/14 19:45:18;;;;;;;;;;;;;;;15.72;40.01;98407.19;10325129;28;881;-79
2024/01/14 19:50:14;;;;;;;;;;;;;;;15.73;40.04;98411.50;10324707;28;1902;-79
2024/01/14 19:55:10;;;;;;;;;;;;;;;15.72;40.00;98415.91;10325107;28;878;-79
2024/01/14 20:00:09;;;;;;;;;;;;;;;15.73;40.11;98422.00;10325160;28;922;-77
2024/01/14 20:05:05;;;;;;;;;;;;;;;15.72;40.13;98399.31;10324444;28;803;-77
2024/01/14 20:10:01;;;;;;;;;;;;;;;15.74;40.13;98403.50;10324286;28;1963;-77
2024/01/14 20:14:57;;;;;;;;;;;;;;;15.74;40.00;98390.38;10324802;28;1136;-77
2024/01/14 20:19:53;;;;;;;;;;;;;;;15.74;39.98;98382.50;10324116;28;886;-77
2024/01/14 20:24:49;;;;;;;;;;;;;;;15.74;39.97;98374.63;10324594;28;895;-77
2024/01/14 20:29:45;;;;;;;;;;;;;;;15.75;39.89;98373.69;10325911;28;1910;-77
2024/01/14 20:34:41;;;;;;;;;;;;;;;15.76;40.03;98366.66;10331332;28;1644;-77
2024/01/14 20:39:37;;;;;;;;;;;;;;;15.75;39.88;98357.94;10332668;28;853;-77
2024/01/14 20:44:34;;;;;;;;;;;;;;;15.73;39.91;98358.97;10330940;28;782;-77
2024/01/14 20:49:30;;;;;;;;;;;;;;;15.74;39.98;98350.13;10330784;28;1894;-77
2024/01/14 20:54:25;;;;;;;;;;;;;;;15.73;39.81;98341.41;10330765;28;788;-77
2024/01/14 20:59:21;;;;;;;;;;;;;;;15.72;39.90;98331.84;10330470;28;882;-77
2024/01/14 21:04:17;;;;;;;;;;;;;;;15.70;39.85;98325.81;10330445;28;920;-77
2024/01/14 21:09:14;;;;;;;;;;;;;;;15.71;39.75;98319.63;10330312;28;1898;-77
2024/01/14 21:14:10;;;;;;;;;;;;;;;15.71;39.80;98309.13;10330717;28;856;-77
2024/01/14 21:19:05;;;;;;;;;;;;;;;15.70;39.81;98306.59;10330121;28;1274;-77
2024/01/14 21:24:02;;;;;;;;;;;;;;;15.69;39.70;98304.88;10329742;28;980;-82
2024/01/14 21:28:58;;;;;;;;;;;;;;;15.70;39.83;98298.72;10328498;28;1906;-85
2024/01/14 21:33:54;;;;;;;;;;;;;;;15.69;39.85;98311.00;10329218;28;799;-79
2024/01/14 21:38:50;;;;;;;;;;;;;;;15.69;39.94;98313.63;10329566;28;865;-79
2024/01/14 21:43:46;;;;;;;;;;;;;;;15.69;39.78;98305.75;10328868;28;917;-80
2024/01/14 21:48:42;;;;;;;;;;;;;;;15.71;39.62;98303.03;10328431;28;1902;-78
2024/01/14 21:53:37;;;;;;;;;;;;;;;15.69;39.66;98305.75;10327904;28;1011;-77
2024/01/14 21:58:34;;;;;;;;;;;;;;;15.68;39.96;98318.94;10328065;28;750;-78
2024/01/14 22:03:30;;;;;;;;;;;;;;;15.67;39.92;98314.63;10328639;28;1080;-78
2024/01/14 22:08:26;;;;;;;;;;;;;;;15.66;39.92;98305.03;10327791;28;1894;-78
2024/01/14 22:13:22;;;;;;;;;;;;;;;15.66;39.78;98297.16;10326274;28;1230;-78
2024/01/14 22:18:18;;;;;;;;;;;;;;;15.65;39.90;98288.44;10327095;28;965;-79
2024/01/14 22:23:14;;;;;;;;;;;;;;;15.62;39.92;98296.50;10327412;28;751;-89
2024/01/14 22:28:10;;;;;;;;;;;;;;;15.63;39.97;98286.84;10327264;28;1902;-82
2024/01/14 22:33:06;;;;;;;;;;;;;;;15.60;39.85;98279.97;10327569;28;836;-84
2024/01/14 22:38:02;;;;;;;;;;;;;;;15.58;39.78;98276.59;10327506;28;764;-88
2024/01/14 22:42:58;;;;;;;;;;;;;;;15.59;40.01;98288.81;10327831;28;791;-74
2024/01/14 22:47:54;;;;;;;;;;;;;;;15.58;39.87;98289.72;10326472;28;1914;-74
2024/01/14 22:52:49;;;;;;;;;;;;;;;15.56;39.88;98283.69;10326291;28;859;-74
2024/01/14 22:57:45;;;;;;;;;;;;;;;15.56;39.94;98284.56;10326771;28;759;-75
2024/01/14 23:02:41;;;;;;;;;;;;;;;15.56;39.91;98284.56;10325972;28;826;-75
2024/01/14 23:07:37;;;;;;;;;;;;;;;15.54;40.08;98270.69;10325906;28;1967;-75
2024/01/14 23:12:33;;;;;;;;;;;;;;;15.55;39.88;98272.34;10326436;28;865;-75
2024/01/14 23:17:29;;;;;;;;;;;;;;;15.54;39.88;98257.53;10326624;28;974;-75
2024/01/14 23:22:25;;;;;;;;;;;;;;;15.54;39.91;98254.91;10326117;28;766;-74
2024/01/14 23:27:21;;;;;;;;;;;;;;;15.54;39.86;98249.66;10326492;28;1980;-74
2024/01/14 23:32:16;;;;;;;;;;;;;;;15.55;39.95;98251.34;10326104;28;905;-75
2024/01/14 23:37:12;;;;;;;;;;;;;;;15.54;40.03;98257.53;10325272;28;889;-74
2024/01/14 23:42:08;;;;;;;;;;;;;;;15.54;40.07;98265.44;10326103;28;843;-75
2024/01/14 23:47:04;;;;;;;;;;;;;;;15.54;40.00;98259.34;10325546;28;1959;-75
2024/01/14 23:52:00;;;;;;;;;;;;;;;15.53;40.11;98253.22;10324941;28;857;-74
2024/01/14 23:56:56;;;;;;;;;;;;;;;15.52;39.90;98248.91;10326328;28;894;-74
